createdAt,value
2022-12-13T00:01:47.350Z,-1.07
2022-12-13T00:04:16.331Z,-1.11
2022-12-13T00:06:46.620Z,-1.19
2022-12-13T00:09:16.741Z,-1.23
2022-12-13T00:11:46.066Z,-1.06
2022-12-13T00:14:15.241Z,-1.06
2022-12-13T00:16:48.095Z,-1.08
2022-12-13T00:19:18.531Z,-2.40
2022-12-13T00:21:48.436Z,-1.22
2022-12-13T00:24:17.229Z,-1.04
2022-12-13T00:26:45.939Z,-1.04
2022-12-13T00:29:14.988Z,-1.03
2022-12-13T00:31:56.701Z,-1.07
2022-12-13T00:34:28.719Z,-1.10
2022-12-13T00:37:10.167Z,-1.82
2022-12-13T00:39:39.141Z,-1.07
2022-12-13T00:42:07.913Z,-1.16
2022-12-13T00:44:36.577Z,-1.08
2022-12-13T00:47:06.517Z,-1.07
2022-12-13T00:49:35.186Z,-1.05
2022-12-13T00:52:05.344Z,-1.82
2022-12-13T00:54:34.158Z,-1.06
2022-12-13T00:57:02.829Z,-1.06
2022-12-13T00:59:31.692Z,-1.07
2022-12-13T01:02:00.266Z,-1.05
2022-12-13T01:04:28.926Z,-1.06
2022-12-13T01:06:57.637Z,-1.04
2022-12-13T01:09:31.087Z,-1.02
2022-12-13T01:12:01.789Z,-1.04
2022-12-13T01:14:30.792Z,-1.00
2022-12-13T01:16:59.848Z,-0.99
2022-12-13T01:19:29.888Z,-1.02
2022-12-13T01:22:00.090Z,-1.00
2022-12-13T01:24:31.456Z,-1.29
2022-12-13T01:27:00.769Z,-1.01
2022-12-13T01:29:29.571Z,-1.03
2022-12-13T01:31:58.388Z,-1.04
2022-12-13T01:34:27.524Z,-1.05
2022-12-13T01:36:58.352Z,-1.06
2022-12-13T01:39:30.012Z,-1.07
2022-12-13T01:42:02.796Z,-1.08
2022-12-13T01:45:19.928Z,-1.05
2022-12-13T01:47:52.855Z,-1.62
2022-12-13T01:50:28.109Z,-1.03
2022-12-13T01:53:00.161Z,-1.87
2022-12-13T01:55:41.420Z,-1.05
2022-12-13T01:58:11.420Z,-1.07
2022-12-13T02:00:40.954Z,-1.06
2022-12-13T02:03:21.664Z,-1.09
2022-12-13T02:06:00.546Z,-1.07
2022-12-13T02:08:29.947Z,-1.02
2022-12-13T02:11:01.505Z,-1.01
2022-12-13T02:13:31.595Z,-1.03
2022-12-13T02:16:11.425Z,-1.06
2022-12-13T02:19:09.505Z,-1.17
2022-12-13T02:21:53.733Z,-2.27
2022-12-13T02:24:58.766Z,-2.22
2022-12-13T02:28:00.747Z,-2.60
2022-12-13T02:30:39.556Z,-1.30
2022-12-13T02:33:36.140Z,-2.08
2022-12-13T02:36:15.640Z,-1.19
2022-12-13T02:38:56.203Z,-1.06
2022-12-13T02:41:37.303Z,-1.54
2022-12-13T02:44:22.374Z,-1.07
2022-12-13T02:46:59.163Z,-1.67
2022-12-13T02:49:36.122Z,-1.29
2022-12-13T02:52:09.438Z,-1.16
2022-12-13T02:54:42.797Z,-1.03
2022-12-13T02:57:32.146Z,-1.04
2022-12-13T03:00:07.256Z,-1.08
2022-12-13T03:02:57.324Z,-1.34
2022-12-13T03:05:57.529Z,-1.18
2022-12-13T03:08:35.627Z,-1.07
2022-12-13T03:11:10.833Z,-2.21
2022-12-13T03:13:50.957Z,-1.86
2022-12-13T03:16:36.607Z,-1.10
2022-12-13T03:19:11.466Z,-1.20
2022-12-13T03:21:47.408Z,-2.43
2022-12-13T03:24:19.756Z,-1.06
2022-12-13T03:26:52.465Z,-2.97
2022-12-13T03:29:24.891Z,-1.12
2022-12-13T03:31:54.445Z,-1.13
2022-12-13T03:34:24.651Z,-1.10
2022-12-13T03:36:54.500Z,-2.90
2022-12-13T03:39:24.188Z,-2.02
2022-12-13T03:41:53.309Z,-1.04
2022-12-13T03:44:22.651Z,-1.08
2022-12-13T03:46:51.495Z,-1.07
2022-12-13T03:49:19.904Z,-1.06
2022-12-13T03:51:49.991Z,-1.06
2022-12-13T03:54:18.853Z,-1.05
2022-12-13T03:57:15.710Z,-1.53
2022-12-13T03:59:44.429Z,-1.03
2022-12-13T04:02:13.198Z,-1.04
2022-12-13T04:04:42.063Z,-1.07
2022-12-13T04:07:22.596Z,-2.55
2022-12-13T04:09:51.616Z,-1.04
2022-12-13T04:12:37.529Z,-1.03
2022-12-13T04:15:07.596Z,-1.94
2022-12-13T04:17:36.330Z,-1.05
2022-12-13T04:20:05.273Z,-1.02
2022-12-13T04:22:35.338Z,-0.99
2022-12-13T04:25:04.205Z,-1.00
2022-12-13T04:27:33.261Z,-1.02
2022-12-13T04:30:02.003Z,-1.05
2022-12-13T04:32:30.716Z,-1.08
2022-12-13T04:35:01.091Z,-1.12
2022-12-13T04:37:30.654Z,-1.15
2022-12-13T04:40:01.186Z,-1.28
2022-12-13T04:42:30.147Z,-1.12
2022-12-13T04:44:58.749Z,-1.08
2022-12-13T04:47:27.133Z,-1.07
2022-12-13T04:49:56.127Z,-1.09
2022-12-13T04:52:24.879Z,-1.12
2022-12-13T04:54:55.783Z,-1.16
2022-12-13T04:57:26.134Z,-2.72
2022-12-13T04:59:54.864Z,-1.14
2022-12-13T05:02:24.403Z,-1.17
2022-12-13T05:04:53.543Z,-1.17
2022-12-13T05:07:23.250Z,-1.22
2022-12-13T05:09:52.018Z,-1.22
2022-12-13T05:12:22.522Z,-1.19
2022-12-13T05:14:53.519Z,-1.99
2022-12-13T05:17:22.425Z,-1.15
2022-12-13T05:19:51.530Z,-1.12
2022-12-13T05:22:21.307Z,-1.16
2022-12-13T05:24:50.335Z,-1.16
2022-12-13T05:27:25.647Z,-1.16
2022-12-13T05:30:03.612Z,-1.20
2022-12-13T05:32:42.751Z,-1.46
2022-12-13T05:35:13.652Z,-1.39
2022-12-13T05:37:42.846Z,-1.45
2022-12-13T05:40:12.001Z,-1.24
2022-12-13T05:42:40.540Z,-1.65
2022-12-13T05:45:11.588Z,-1.22
2022-12-13T05:47:40.288Z,-1.21
2022-12-13T05:50:09.370Z,-1.21
2022-12-13T05:52:38.214Z,-1.22
2022-12-13T05:55:07.515Z,-1.64
2022-12-13T05:57:37.272Z,-1.23
2022-12-13T06:00:28.790Z,-1.39
2022-12-13T06:03:01.480Z,-1.22
2022-12-13T06:05:32.078Z,-1.22
2022-12-13T06:08:01.087Z,-1.23
2022-12-13T06:10:34.408Z,-1.24
2022-12-13T06:13:22.051Z,-1.29
2022-12-13T06:16:02.043Z,-1.63
2022-12-13T06:18:34.051Z,-1.29
2022-12-13T06:21:07.019Z,-1.32
2022-12-13T06:23:36.936Z,-1.36
2022-12-13T06:26:07.535Z,-1.37
2022-12-13T06:28:39.201Z,-1.60
2022-12-13T06:31:10.435Z,-2.48
2022-12-13T06:33:39.254Z,-1.29
2022-12-13T06:36:09.187Z,-1.29
2022-12-13T06:38:43.565Z,-1.29
2022-12-13T06:41:17.798Z,-1.87
2022-12-13T06:43:48.188Z,-1.65
2022-12-13T06:46:19.062Z,-1.84
2022-12-13T06:48:47.794Z,-1.31
2022-12-13T06:51:22.474Z,-1.29
2022-12-13T06:53:51.891Z,-1.28
2022-12-13T06:56:20.849Z,-1.24
2022-12-13T06:58:49.816Z,-1.22
2022-12-13T07:01:24.405Z,-1.19
2022-12-13T07:03:55.453Z,-1.18
2022-12-13T07:06:27.972Z,-1.33
2022-12-13T07:09:03.532Z,-1.22
2022-12-13T07:11:34.691Z,-2.41
2022-12-13T07:14:03.388Z,-1.24
2022-12-13T07:16:34.531Z,-1.24
2022-12-13T07:19:04.320Z,-1.68
2022-12-13T07:21:51.906Z,-1.16
2022-12-13T07:24:23.296Z,-1.20
2022-12-13T07:26:51.964Z,-1.16
2022-12-13T07:29:22.663Z,-1.15
2022-12-13T07:31:53.783Z,-1.14
2022-12-13T07:34:31.386Z,-1.10
2022-12-13T07:37:00.034Z,-1.08
2022-12-13T07:39:28.933Z,-1.12
2022-12-13T07:41:58.009Z,-1.07
2022-12-13T07:44:27.344Z,-1.03
2022-12-13T07:47:00.552Z,-1.00
2022-12-13T07:49:29.253Z,-0.94
2022-12-13T07:51:58.174Z,-0.89
2022-12-13T07:54:26.463Z,-0.92
2022-12-13T07:56:59.744Z,-0.85
2022-12-13T07:59:31.501Z,-0.86
2022-12-13T08:02:02.121Z,-0.85
2022-12-13T08:04:37.694Z,-0.84
2022-12-13T08:07:09.255Z,-0.87
2022-12-13T08:09:38.146Z,-0.77
2022-12-13T08:12:07.629Z,-0.77
2022-12-13T08:14:36.439Z,-0.76
2022-12-13T08:17:06.308Z,-0.73
2022-12-13T08:19:35.480Z,-0.65
2022-12-13T08:22:06.244Z,-0.63
2022-12-13T08:24:42.907Z,-0.58
2022-12-13T08:27:12.194Z,-0.53
2022-12-13T08:29:41.037Z,-0.57
2022-12-13T08:32:14.488Z,-0.62
2022-12-13T08:34:43.486Z,-0.50
2022-12-13T08:37:13.049Z,-0.43
2022-12-13T08:39:42.753Z,-0.93
2022-12-13T08:42:18.696Z,-1.10
2022-12-13T08:44:49.745Z,-0.21
2022-12-13T08:47:24.532Z,-0.18
2022-12-13T08:50:02.284Z,-0.15
2022-12-13T08:52:39.602Z,-0.10
2022-12-13T08:55:10.971Z,-0.05
2022-12-13T08:57:40.580Z,-0.08
2022-12-13T09:00:13.232Z,-0.01
2022-12-13T09:02:43.420Z,0.06
2022-12-13T09:05:33.949Z,0.09
2022-12-13T09:08:04.304Z,0.16
2022-12-13T09:10:59.377Z,0.20
2022-12-13T09:13:31.086Z,0.25
2022-12-13T09:16:04.975Z,0.33
2022-12-13T09:18:43.979Z,0.39
2022-12-13T09:21:22.476Z,0.17
2022-12-13T09:24:01.583Z,0.51
2022-12-13T09:26:37.826Z,0.62
2022-12-13T09:29:11.242Z,0.70
2022-12-13T09:31:41.132Z,0.81
2022-12-13T09:34:11.215Z,0.61
2022-12-13T09:36:40.288Z,0.73
2022-12-13T09:39:09.149Z,0.71
2022-12-13T09:41:43.468Z,0.36
2022-12-13T09:44:30.541Z,0.88
2022-12-13T09:47:04.033Z,1.06
2022-12-13T09:49:52.232Z,1.18
2022-12-13T09:52:25.776Z,0.41
2022-12-13T09:54:58.100Z,0.68
2022-12-13T09:57:32.095Z,0.77
2022-12-13T10:00:06.968Z,1.07
2022-12-13T10:02:46.453Z,1.09
2022-12-13T10:05:35.702Z,1.25
2022-12-13T10:08:15.076Z,1.29
2022-12-13T10:10:45.017Z,1.44
2022-12-13T10:13:22.445Z,1.39
2022-12-13T10:16:02.328Z,1.35
2022-12-13T10:18:38.020Z,1.39
2022-12-13T10:21:14.701Z,1.42
2022-12-13T10:24:22.836Z,1.49
2022-12-13T10:26:38.094Z,1.32
2022-12-13T10:29:08.310Z,1.38
2022-12-13T10:31:43.787Z,1.30
2022-12-13T10:34:26.354Z,1.59
2022-12-13T10:36:59.724Z,1.53
2022-12-13T10:39:42.839Z,1.13
2022-12-13T10:42:22.636Z,1.40
2022-12-13T10:45:16.083Z,1.63
2022-12-13T10:47:53.623Z,1.65
2022-12-13T10:50:27.954Z,0.40
2022-12-13T10:53:01.265Z,1.36
2022-12-13T10:55:34.582Z,1.57
2022-12-13T10:58:09.397Z,1.68
2022-12-13T11:00:42.976Z,1.54
2022-12-13T11:03:28.811Z,1.28
2022-12-13T11:06:06.064Z,1.52
2022-12-13T11:08:36.895Z,0.75
2022-12-13T11:11:08.674Z,1.79
2022-12-13T11:13:40.997Z,0.07
2022-12-13T11:16:28.053Z,0.00
2022-12-13T11:19:01.022Z,1.70
2022-12-13T11:21:33.573Z,1.66
2022-12-13T11:24:08.834Z,0.45
2022-12-13T11:26:42.914Z,1.00
2022-12-13T11:29:57.310Z,1.46
2022-12-13T11:33:01.507Z,1.05
2022-12-13T11:35:40.850Z,0.11
2022-12-13T11:38:27.696Z,1.72
2022-12-13T11:41:11.114Z,1.55
2022-12-13T11:43:47.893Z,0.95
2022-12-13T11:46:23.522Z,1.79
2022-12-13T11:49:00.096Z,1.70
2022-12-13T11:51:38.281Z,1.61
2022-12-13T11:54:14.350Z,1.57
2022-12-13T11:57:00.056Z,0.47
2022-12-13T11:59:40.739Z,1.56
2022-12-13T12:02:21.420Z,1.57
2022-12-13T12:05:00.063Z,1.24
2022-12-13T12:07:58.460Z,1.65
2022-12-13T12:10:37.545Z,1.58
2022-12-13T12:13:17.038Z,1.54
2022-12-13T12:15:57.719Z,1.02
2022-12-13T12:18:26.602Z,1.54
2022-12-13T12:21:17.550Z,1.50
2022-12-13T12:24:08.594Z,1.51
2022-12-13T12:26:51.207Z,1.04
2022-12-13T12:29:55.971Z,0.43
2022-12-13T12:32:42.345Z,0.78
2022-12-13T12:35:50.966Z,0.91
2022-12-13T12:38:47.711Z,1.32
2022-12-13T12:41:34.928Z,1.29
2022-12-13T12:44:22.247Z,1.37
2022-12-13T12:47:49.062Z,1.41
2022-12-13T12:50:27.293Z,1.36
2022-12-13T12:53:10.706Z,1.32
2022-12-13T12:55:55.467Z,1.28
2022-12-13T12:58:34.877Z,0.52
2022-12-13T13:01:27.662Z,1.16
2022-12-13T13:04:04.169Z,1.19
2022-12-13T13:06:41.474Z,1.32
2022-12-13T13:09:12.604Z,1.26
2022-12-13T13:11:46.230Z,0.78
2022-12-13T13:14:34.065Z,1.23
2022-12-13T13:17:41.866Z,1.19
2022-12-13T13:20:24.341Z,1.18
2022-12-13T13:23:25.270Z,1.17
2022-12-13T13:28:44.825Z,0.79
2022-12-13T13:31:13.530Z,1.10
2022-12-13T13:33:47.684Z,0.92
2022-12-13T13:40:30.655Z,0.78
2022-12-13T13:43:17.417Z,0.42
2022-12-13T13:46:00.532Z,-1.25
2022-12-13T13:48:54.700Z,0.60
2022-12-13T13:52:24.460Z,0.56
2022-12-13T13:55:44.875Z,0.55
2022-12-13T13:58:56.689Z,-0.71
2022-12-13T14:02:08.221Z,0.12
2022-12-13T14:05:43.216Z,0.51
2022-12-13T14:08:33.704Z,0.46
2022-12-13T14:11:54.556Z,0.30
2022-12-13T14:15:07.050Z,0.32
2022-12-13T14:18:21.320Z,-0.06
2022-12-13T14:21:52.758Z,0.15
2022-12-13T14:24:39.795Z,0.08
2022-12-13T14:27:36.032Z,-0.23
2022-12-13T14:30:27.089Z,0.04
2022-12-13T14:32:54.065Z,-0.09
2022-12-13T14:35:27.465Z,0.05
2022-12-13T14:38:05.983Z,-0.10
2022-12-13T14:40:36.680Z,-0.08
2022-12-13T14:43:07.504Z,-0.08
2022-12-13T14:45:38.832Z,-0.08
2022-12-13T14:48:28.887Z,-0.12
2022-12-13T14:50:58.640Z,-0.15
2022-12-13T14:53:30.656Z,-1.96
2022-12-13T14:56:09.591Z,-0.77
2022-12-13T14:58:43.132Z,-0.23
2022-12-13T15:01:29.591Z,-0.47
2022-12-13T15:04:24.616Z,-0.51
2022-12-13T15:07:03.969Z,-0.42
2022-12-13T15:09:36.906Z,-0.33
2022-12-13T15:12:23.731Z,-0.31
2022-12-13T15:15:02.472Z,-0.34
2022-12-13T15:17:36.249Z,-0.36
2022-12-13T15:20:28.990Z,-0.45
2022-12-13T15:23:06.219Z,-0.47
2022-12-13T15:25:40.110Z,-0.58
2022-12-13T15:28:21.698Z,-0.45
2022-12-13T15:30:55.288Z,-0.45
2022-12-13T15:33:33.163Z,-0.57
2022-12-13T15:36:12.173Z,-0.46
2022-12-13T15:38:49.986Z,-1.30
2022-12-13T15:41:20.969Z,-0.56
2022-12-13T15:43:54.350Z,-1.60
2022-12-13T15:46:29.570Z,-0.66
2022-12-13T15:49:01.048Z,-1.09
2022-12-13T15:51:31.681Z,-2.68
2022-12-13T15:54:20.142Z,-0.84
2022-12-13T15:57:04.550Z,-1.75
2022-12-13T15:59:36.734Z,-2.18
2022-12-13T16:02:20.438Z,-1.63
2022-12-13T16:04:50.407Z,-1.02
2022-12-13T16:07:26.634Z,-1.67
2022-12-13T16:09:56.858Z,-1.13
2022-12-13T16:12:37.510Z,-1.11
2022-12-13T16:15:28.459Z,-1.10
2022-12-13T16:18:13.553Z,-1.13
2022-12-13T16:20:44.027Z,-1.80
2022-12-13T16:23:26.756Z,-1.24
2022-12-13T16:25:56.447Z,-1.31
2022-12-13T16:28:27.897Z,-1.39
2022-12-13T16:31:10.693Z,-2.02
2022-12-13T16:33:40.842Z,-1.59
2022-12-13T16:36:11.433Z,-2.45
2022-12-13T16:38:40.454Z,-1.73
2022-12-13T16:41:09.969Z,-1.85
2022-12-13T16:43:54.983Z,-2.72
2022-12-13T16:47:12.088Z,-2.09
2022-12-13T16:49:23.089Z,-3.51
2022-12-13T16:51:52.496Z,-2.23
2022-12-13T16:54:22.879Z,-2.32
2022-12-13T16:56:52.777Z,-2.37
2022-12-13T16:59:24.872Z,-2.62
2022-12-13T17:01:54.937Z,-2.55
2022-12-13T17:04:27.212Z,-4.08
2022-12-13T17:06:56.548Z,-2.61
2022-12-13T17:09:26.091Z,-3.63
2022-12-13T17:11:54.922Z,-2.61
2022-12-13T17:14:24.156Z,-2.61
2022-12-13T17:16:53.089Z,-2.64
2022-12-13T17:19:22.350Z,-2.72
2022-12-13T17:21:52.746Z,-2.77
2022-12-13T17:24:21.520Z,-2.80
2022-12-13T17:26:54.526Z,-2.79
2022-12-13T17:29:25.004Z,-2.81
2022-12-13T17:31:54.271Z,-2.82
2022-12-13T17:34:22.949Z,-2.82
2022-12-13T17:36:55.229Z,-2.86
2022-12-13T17:39:26.611Z,-2.83
2022-12-13T17:41:59.003Z,-2.74
2022-12-13T17:44:28.333Z,-2.72
2022-12-13T17:46:59.630Z,-2.82
2022-12-13T17:49:28.706Z,-2.93
2022-12-13T17:51:59.293Z,-3.06
2022-12-13T17:54:37.778Z,-3.14
2022-12-13T17:57:11.865Z,-3.26
2022-12-13T17:59:43.027Z,-3.39
2022-12-13T18:02:14.209Z,-3.54
2022-12-13T18:04:43.249Z,-3.69
2022-12-13T18:07:13.500Z,-3.84
2022-12-13T18:09:42.832Z,-3.95
2022-12-13T18:12:12.505Z,-4.04
2022-12-13T18:14:41.391Z,-4.07
2022-12-13T18:17:10.067Z,-4.19
2022-12-13T18:19:38.898Z,-4.26
2022-12-13T18:22:07.763Z,-4.32
2022-12-13T18:24:38.489Z,-4.37
2022-12-13T18:27:07.226Z,-4.44
2022-12-13T18:29:35.963Z,-4.50
2022-12-13T18:32:04.771Z,-4.51
2022-12-13T18:34:33.385Z,-4.53
2022-12-13T18:37:02.634Z,-4.57
2022-12-13T18:39:31.554Z,-4.60
2022-12-13T18:42:01.765Z,-4.67
2022-12-13T18:44:34.091Z,-4.72
2022-12-13T18:47:02.746Z,-4.78
2022-12-13T18:49:31.326Z,-4.82
2022-12-13T18:52:00.686Z,-4.86
2022-12-13T18:54:30.808Z,-4.98
2022-12-13T18:57:01.233Z,-5.43
2022-12-13T18:59:33.249Z,-4.98
2022-12-13T19:02:01.962Z,-5.09
2022-12-13T19:04:30.635Z,-5.08
2022-12-13T19:06:59.252Z,-5.09
2022-12-13T19:09:29.783Z,-5.17
2022-12-13T19:11:58.804Z,-5.19
2022-12-13T19:14:28.973Z,-5.24
2022-12-13T19:16:57.617Z,-5.26
2022-12-13T19:19:26.297Z,-5.28
2022-12-13T19:21:55.776Z,-5.29
2022-12-13T19:24:24.390Z,-5.33
2022-12-13T19:26:53.881Z,-5.34
2022-12-13T19:29:22.516Z,-5.75
2022-12-13T19:31:52.615Z,-6.03
2022-12-13T19:34:21.374Z,-5.36
2022-12-13T19:36:51.440Z,-5.35
2022-12-13T19:39:20.464Z,-5.37
2022-12-13T19:41:50.246Z,-5.38
2022-12-13T19:44:20.209Z,-5.61
2022-12-13T19:46:49.450Z,-5.40
2022-12-13T19:49:19.800Z,-5.39
2022-12-13T19:51:49.382Z,-5.39
2022-12-13T19:54:18.203Z,-5.44
2022-12-13T19:56:47.304Z,-5.44
2022-12-13T19:59:16.197Z,-5.42
2022-12-13T20:01:46.174Z,-5.46
2022-12-13T20:04:15.286Z,-5.48
2022-12-13T20:06:46.223Z,-5.42
2022-12-13T20:09:16.423Z,-5.38
2022-12-13T20:11:45.287Z,-5.33
2022-12-13T20:14:15.909Z,-5.25
2022-12-13T20:16:49.269Z,-5.25
2022-12-13T20:19:22.064Z,-5.55
2022-12-13T20:21:56.723Z,-6.50
2022-12-13T20:24:27.347Z,-5.35
2022-12-13T20:26:56.113Z,-5.25
2022-12-13T20:29:25.232Z,-5.25
2022-12-13T20:31:54.386Z,-5.29
2022-12-13T20:34:23.797Z,-5.30
2022-12-13T20:36:54.004Z,-5.31
2022-12-13T20:39:23.187Z,-5.42
2022-12-13T20:41:52.188Z,-5.47
2022-12-13T20:44:21.216Z,-5.52
2022-12-13T20:46:50.209Z,-5.55
2022-12-13T20:49:19.229Z,-5.59
2022-12-13T20:51:48.020Z,-5.66
2022-12-13T20:54:18.190Z,-5.68
2022-12-13T20:56:46.688Z,-5.71
2022-12-13T20:59:15.469Z,-6.24
2022-12-13T21:01:48.870Z,-6.05
2022-12-13T21:04:18.838Z,-5.82
2022-12-13T21:06:47.146Z,-5.87
2022-12-13T21:09:18.089Z,-5.90
2022-12-13T21:11:51.069Z,-6.81
2022-12-13T21:14:23.562Z,-6.69
2022-12-13T21:16:55.435Z,-5.99
2022-12-13T21:19:26.555Z,-5.80
2022-12-13T21:21:57.042Z,-5.76
2022-12-13T21:24:29.466Z,-6.53
2022-12-13T21:26:58.267Z,-5.68
2022-12-13T21:29:26.704Z,-5.99
2022-12-13T21:31:56.155Z,-5.65
2022-12-13T21:34:25.073Z,-5.69
2022-12-13T21:36:53.953Z,-5.94
2022-12-13T21:39:24.749Z,-5.79
2022-12-13T21:41:54.870Z,-6.13
2022-12-13T21:44:23.532Z,-5.87
2022-12-13T21:47:11.857Z,-5.93
2022-12-13T21:49:41.352Z,-5.95
2022-12-13T21:52:09.940Z,-5.94
2022-12-13T21:54:38.619Z,-5.98
2022-12-13T21:57:35.361Z,-6.01
2022-12-13T22:00:05.096Z,-6.01
2022-12-13T22:02:41.587Z,-5.95
2022-12-13T22:05:11.884Z,-5.91
2022-12-13T22:07:40.541Z,-5.90
2022-12-13T22:10:09.874Z,-5.92
2022-12-13T22:12:41.976Z,-5.95
2022-12-13T22:15:14.200Z,-6.02
2022-12-13T22:17:43.471Z,-6.15
2022-12-13T22:20:15.531Z,-6.21
2022-12-13T22:22:45.308Z,-6.33
2022-12-13T22:25:13.952Z,-6.27
2022-12-13T22:27:43.931Z,-6.30
2022-12-13T22:30:12.993Z,-6.29
2022-12-13T22:32:42.347Z,-6.25
2022-12-13T22:35:11.875Z,-6.28
2022-12-13T22:37:40.454Z,-6.31
2022-12-13T22:40:10.655Z,-6.36
2022-12-13T22:42:39.358Z,-6.35
2022-12-13T22:45:10.277Z,-6.30
2022-12-13T22:47:38.905Z,-6.29
2022-12-13T22:50:08.744Z,-6.38
2022-12-13T22:52:37.274Z,-6.63
2022-12-13T22:55:06.503Z,-6.28
2022-12-13T22:57:34.799Z,-6.55
2022-12-13T23:00:03.240Z,-6.24
2022-12-13T23:02:32.977Z,-7.02
2022-12-13T23:05:01.278Z,-6.29
2022-12-13T23:07:29.708Z,-6.34
2022-12-13T23:09:58.119Z,-6.35
2022-12-13T23:12:43.940Z,-6.33
2022-12-13T23:15:12.355Z,-6.43
2022-12-13T23:17:42.013Z,-6.36
2022-12-13T23:20:12.928Z,-7.20
2022-12-13T23:22:41.306Z,-7.25
2022-12-13T23:25:10.503Z,-6.97
2022-12-13T23:27:38.847Z,-6.47
2022-12-13T23:30:08.568Z,-6.48
2022-12-13T23:32:36.910Z,-6.49
2022-12-13T23:35:09.167Z,-6.49
2022-12-13T23:37:38.186Z,-7.47
2022-12-13T23:40:08.605Z,-6.58
2022-12-13T23:42:36.946Z,-6.98
2022-12-13T23:45:06.254Z,-6.56
2022-12-13T23:47:34.630Z,-6.74
2022-12-13T23:50:02.893Z,-6.66
2022-12-13T23:52:32.641Z,-6.60
2022-12-13T23:55:00.972Z,-6.82
2022-12-13T23:57:29.561Z,-6.68
2022-12-13T23:59:57.867Z,-6.67
